sensor_id;sensor_type;location;lat;lon;timestamp;pressure;altitude;pressure_sealevel;temperature;humidity
64340;BME280;63709;53.258;-8.814;2023-04-22T00:01:14;100987.97;;;12.95;100.00
64340;BME280;63709;53.258;-8.814;2023-04-22T00:03:40;101006.34;;;13.00;100.00
64340;BME280;63709;53.258;-8.814;2023-04-22T00:06:06;101019.75;;;13.00;100.00
64340;BME280;63709;53.258;-8.814;2023-04-22T00:08:32;101007.38;;;13.20;100.00
64340;BME280;63709;53.258;-8.814;2023-04-22T00:10:57;101010.69;;;13.23;100.00
64340;BME280;63709;53.258;-8.814;2023-04-22T00:13:24;100994.59;;;13.23;100.00
64340;BME280;63709;53.258;-8.814;2023-04-22T00:15:51;100990.19;;;13.34;100.00
64340;BME280;63709;53.258;-8.814;2023-04-22T00:18:17;101000.84;;;13.45;100.00
64340;BME280;63709;53.258;-8.814;2023-04-22T00:20:44;100983.81;;;13.35;100.00
64340;BME280;63709;53.258;-8.814;2023-04-22T00:23:12;100984.56;;;13.37;100.00
64340;BME280;63709;53.258;-8.814;2023-04-22T00:25:39;100993.44;;;13.37;100.00
64340;BME280;63709;53.258;-8.814;2023-04-22T00:28:06;101007.28;;;13.53;100.00
64340;BME280;63709;53.258;-8.814;2023-04-22T00:30:34;100994.50;;;13.46;100.00
64340;BME280;63709;53.258;-8.814;2023-04-22T00:32:59;101002.78;;;13.54;100.00
64340;BME280;63709;53.258;-8.814;2023-04-22T00:35:26;100997.91;;;13.48;100.00
64340;BME280;63709;53.258;-8.814;2023-04-22T00:37:52;100978.41;;;13.46;100.00
64340;BME280;63709;53.258;-8.814;2023-04-22T00:40:18;100962.38;;;13.35;100.00
64340;BME280;63709;53.258;-8.814;2023-04-22T00:42:48;100965.34;;;13.31;100.00
64340;BME280;63709;53.258;-8.814;2023-04-22T00:45:15;100963.25;;;13.35;100.00
64340;BME280;63709;53.258;-8.814;2023-04-22T00:47:44;100966.44;;;13.29;100.00
64340;BME280;63709;53.258;-8.814;2023-04-22T00:50:10;100962.66;;;13.31;100.00
64340;BME280;63709;53.258;-8.814;2023-04-22T00:52:38;100962.06;;;13.28;100.00
64340;BME280;63709;53.258;-8.814;2023-04-22T00:55:07;100958.41;;;13.29;100.00
64340;BME280;63709;53.258;-8.814;2023-04-22T00:57:34;100942.75;;;13.34;100.00
64340;BME280;63709;53.258;-8.814;2023-04-22T01:00:00;100914.69;;;13.17;100.00
64340;BME280;63709;53.258;-8.814;2023-04-22T01:02:27;100928.31;;;13.25;100.00
64340;BME280;63709;53.258;-8.814;2023-04-22T01:04:53;100934.13;;;13.30;100.00
64340;BME280;63709;53.258;-8.814;2023-04-22T01:07:22;100928.53;;;13.22;100.00
64340;BME280;63709;53.258;-8.814;2023-04-22T01:09:49;100906.66;;;13.17;100.00
64340;BME280;63709;53.258;-8.814;2023-04-22T01:12:14;100931.34;;;13.32;100.00
64340;BME280;63709;53.258;-8.814;2023-04-22T01:14:40;100920.03;;;13.28;100.00
64340;BME280;63709;53.258;-8.814;2023-04-22T01:17:07;100912.25;;;13.25;100.00
64340;BME280;63709;53.258;-8.814;2023-04-22T01:19:35;100920.72;;;13.30;100.00
64340;BME280;63709;53.258;-8.814;2023-04-22T01:22:02;100919.81;;;13.41;100.00
64340;BME280;63709;53.258;-8.814;2023-04-22T01:24:32;100918.53;;;13.36;100.00
64340;BME280;63709;53.258;-8.814;2023-04-22T01:26:57;100908.75;;;13.35;100.00
64340;BME280;63709;53.258;-8.814;2023-04-22T01:29:23;100900.28;;;13.29;100.00
64340;BME280;63709;53.258;-8.814;2023-04-22T01:31:49;100919.44;;;13.25;100.00
64340;BME280;63709;53.258;-8.814;2023-04-22T01:34:15;100917.13;;;13.41;100.00
64340;BME280;63709;53.258;-8.814;2023-04-22T01:36:43;100915.31;;;13.42;100.00
64340;BME280;63709;53.258;-8.814;2023-04-22T01:39:08;100907.31;;;13.51;100.00
64340;BME280;63709;53.258;-8.814;2023-04-22T01:41:34;100903.53;;;13.54;100.00
64340;BME280;63709;53.258;-8.814;2023-04-22T01:44:02;100888.22;;;13.45;100.00
64340;BME280;63709;53.258;-8.814;2023-04-22T01:46:32;100880.34;;;13.43;100.00
64340;BME280;63709;53.258;-8.814;2023-04-22T01:48:59;100864.66;;;13.39;100.00
64340;BME280;63709;53.258;-8.814;2023-04-22T01:51:25;100876.19;;;13.60;100.00
64340;BME280;63709;53.258;-8.814;2023-04-22T01:53:51;100862.06;;;13.58;100.00
64340;BME280;63709;53.258;-8.814;2023-04-22T02:10:30;100811.09;;;13.27;100.00
64340;BME280;63709;53.258;-8.814;2023-04-22T02:12:56;100821.88;;;13.37;100.00
64340;BME280;63709;53.258;-8.814;2023-04-22T02:15:22;100811.81;;;13.29;100.00
64340;BME280;63709;53.258;-8.814;2023-04-22T02:17:48;100846.13;;;13.36;100.00
64340;BME280;63709;53.258;-8.814;2023-04-22T02:20:14;100869.59;;;13.43;100.00
64340;BME280;63709;53.258;-8.814;2023-04-22T02:22:41;100865.09;;;13.44;100.00
64340;BME280;63709;53.258;-8.814;2023-04-22T02:25:09;100852.94;;;13.40;100.00
64340;BME280;63709;53.258;-8.814;2023-04-22T02:27:36;100857.56;;;13.38;100.00
64340;BME280;63709;53.258;-8.814;2023-04-22T02:30:02;100859.75;;;13.12;100.00
64340;BME280;63709;53.258;-8.814;2023-04-22T02:32:28;100853.44;;;13.13;100.00
64340;BME280;63709;53.258;-8.814;2023-04-22T02:34:55;100819.72;;;13.10;100.00
64340;BME280;63709;53.258;-8.814;2023-04-22T02:37:21;100854.00;;;13.27;100.00
64340;BME280;63709;53.258;-8.814;2023-04-22T02:39:48;100848.91;;;13.24;100.00
64340;BME280;63709;53.258;-8.814;2023-04-22T02:42:13;100849.41;;;13.39;100.00
64340;BME280;63709;53.258;-8.814;2023-04-22T02:44:40;100830.31;;;13.32;100.00
64340;BME280;63709;53.258;-8.814;2023-04-22T02:47:06;100845.59;;;13.42;100.00
64340;BME280;63709;53.258;-8.814;2023-04-22T02:49:31;100831.25;;;13.52;100.00
64340;BME280;63709;53.258;-8.814;2023-04-22T02:51:57;100809.94;;;13.51;100.00
64340;BME280;63709;53.258;-8.814;2023-04-22T02:54:23;100826.47;;;13.56;100.00
64340;BME280;63709;53.258;-8.814;2023-04-22T02:56:50;100828.31;;;13.55;100.00
64340;BME280;63709;53.258;-8.814;2023-04-22T02:59:15;100820.22;;;13.46;100.00
64340;BME280;63709;53.258;-8.814;2023-04-22T03:01:41;100823.09;;;13.54;100.00
64340;BME280;63709;53.258;-8.814;2023-04-22T03:04:07;100815.16;;;13.52;100.00
64340;BME280;63709;53.258;-8.814;2023-04-22T03:06:32;100811.22;;;13.56;100.00
64340;BME280;63709;53.258;-8.814;2023-04-22T03:08:59;100799.22;;;13.51;100.00
64340;BME280;63709;53.258;-8.814;2023-04-22T03:11:25;100815.78;;;13.66;100.00
64340;BME280;63709;53.258;-8.814;2023-04-22T03:13:50;100804.50;;;13.72;100.00
64340;BME280;63709;53.258;-8.814;2023-04-22T03:16:18;100802.38;;;13.66;100.00
64340;BME280;63709;53.258;-8.814;2023-04-22T03:18:43;100777.66;;;13.62;100.00
64340;BME280;63709;53.258;-8.814;2023-04-22T03:21:09;100785.00;;;13.60;100.00
64340;BME280;63709;53.258;-8.814;2023-04-22T03:23:34;100786.66;;;13.51;100.00
64340;BME280;63709;53.258;-8.814;2023-04-22T03:26:00;100790.75;;;13.55;100.00
64340;BME280;63709;53.258;-8.814;2023-04-22T03:28:28;100799.38;;;13.59;100.00
64340;BME280;63709;53.258;-8.814;2023-04-22T03:30:53;100778.44;;;13.43;100.00
64340;BME280;63709;53.258;-8.814;2023-04-22T03:33:18;100797.03;;;13.66;100.00
64340;BME280;63709;53.258;-8.814;2023-04-22T03:35:49;100785.25;;;13.57;100.00
64340;BME280;63709;53.258;-8.814;2023-04-22T03:38:15;100787.97;;;13.67;100.00
64340;BME280;63709;53.258;-8.814;2023-04-22T03:40:41;100775.09;;;13.61;100.00
64340;BME280;63709;53.258;-8.814;2023-04-22T03:43:08;100773.16;;;13.63;100.00
64340;BME280;63709;53.258;-8.814;2023-04-22T03:45:34;100775.69;;;13.64;100.00
64340;BME280;63709;53.258;-8.814;2023-04-22T03:48:00;100769.03;;;13.59;100.00
64340;BME280;63709;53.258;-8.814;2023-04-22T03:50:26;100768.56;;;13.44;100.00
64340;BME280;63709;53.258;-8.814;2023-04-22T03:52:51;100755.06;;;13.55;100.00
64340;BME280;63709;53.258;-8.814;2023-04-22T03:55:17;100766.22;;;13.60;100.00
64340;BME280;63709;53.258;-8.814;2023-04-22T03:57:42;100734.81;;;13.41;100.00
64340;BME280;63709;53.258;-8.814;2023-04-22T04:00:08;100752.81;;;13.60;100.00
64340;BME280;63709;53.258;-8.814;2023-04-22T04:02:34;100759.69;;;13.22;100.00
64340;BME280;63709;53.258;-8.814;2023-04-22T04:05:01;100757.25;;;13.40;100.00
64340;BME280;63709;53.258;-8.814;2023-04-22T04:07:27;100758.25;;;13.18;100.00
64340;BME280;63709;53.258;-8.814;2023-04-22T04:09:52;100757.78;;;13.34;100.00
64340;BME280;63709;53.258;-8.814;2023-04-22T04:12:19;100757.84;;;13.44;100.00
64340;BME280;63709;53.258;-8.814;2023-04-22T04:14:44;100737.75;;;13.38;100.00
64340;BME280;63709;53.258;-8.814;2023-04-22T04:17:11;100756.81;;;13.35;100.00
64340;BME280;63709;53.258;-8.814;2023-04-22T04:19:38;100735.75;;;13.30;100.00
64340;BME280;63709;53.258;-8.814;2023-04-22T04:22:05;100747.78;;;13.36;100.00
64340;BME280;63709;53.258;-8.814;2023-04-22T04:24:31;100743.94;;;13.08;100.00
64340;BME280;63709;53.258;-8.814;2023-04-22T04:26:58;100741.84;;;13.12;100.00
64340;BME280;63709;53.258;-8.814;2023-04-22T04:29:24;100741.44;;;13.16;100.00
64340;BME280;63709;53.258;-8.814;2023-04-22T04:31:53;100737.63;;;12.67;100.00
64340;BME280;63709;53.258;-8.814;2023-04-22T04:34:19;100726.84;;;12.99;100.00
64340;BME280;63709;53.258;-8.814;2023-04-22T04:36:45;100733.06;;;12.79;100.00
64340;BME280;63709;53.258;-8.814;2023-04-22T04:39:11;100705.75;;;12.64;100.00
64340;BME280;63709;53.258;-8.814;2023-04-22T04:41:37;100719.66;;;12.79;100.00
64340;BME280;63709;53.258;-8.814;2023-04-22T04:44:03;100695.66;;;12.47;100.00
64340;BME280;63709;53.258;-8.814;2023-04-22T04:46:28;100715.38;;;12.67;100.00
64340;BME280;63709;53.258;-8.814;2023-04-22T04:48:55;100707.22;;;12.68;100.00
64340;BME280;63709;53.258;-8.814;2023-04-22T04:51:21;100708.00;;;12.59;100.00
64340;BME280;63709;53.258;-8.814;2023-04-22T04:53:48;100699.56;;;12.84;100.00
64340;BME280;63709;53.258;-8.814;2023-04-22T04:56:14;100702.66;;;12.90;100.00
64340;BME280;63709;53.258;-8.814;2023-04-22T04:58:42;100683.19;;;12.57;100.00
64340;BME280;63709;53.258;-8.814;2023-04-22T05:01:09;100685.47;;;12.62;100.00
64340;BME280;63709;53.258;-8.814;2023-04-22T05:03:36;100702.38;;;12.62;100.00
64340;BME280;63709;53.258;-8.814;2023-04-22T05:06:03;100685.50;;;12.71;100.00
64340;BME280;63709;53.258;-8.814;2023-04-22T05:08:29;100676.69;;;12.80;100.00
64340;BME280;63709;53.258;-8.814;2023-04-22T05:10:54;100691.97;;;12.90;100.00
64340;BME280;63709;53.258;-8.814;2023-04-22T05:13:20;100690.28;;;12.89;100.00
64340;BME280;63709;53.258;-8.814;2023-04-22T05:15:48;100690.34;;;12.77;100.00
64340;BME280;63709;53.258;-8.814;2023-04-22T05:18:13;100666.59;;;12.63;100.00
64340;BME280;63709;53.258;-8.814;2023-04-22T05:20:40;100691.66;;;12.83;100.00
64340;BME280;63709;53.258;-8.814;2023-04-22T05:23:05;100673.38;;;12.67;100.00
64340;BME280;63709;53.258;-8.814;2023-04-22T05:25:32;100688.66;;;12.76;100.00
64340;BME280;63709;53.258;-8.814;2023-04-22T05:27:58;100699.81;;;12.60;100.00
64340;BME280;63709;53.258;-8.814;2023-04-22T05:30:29;100696.09;;;12.52;100.00
64340;BME280;63709;53.258;-8.814;2023-04-22T05:32:56;100677.31;;;12.63;100.00
64340;BME280;63709;53.258;-8.814;2023-04-22T05:35:23;100672.50;;;12.57;100.00
64340;BME280;63709;53.258;-8.814;2023-04-22T05:37:50;100682.75;;;12.82;100.00
64340;BME280;63709;53.258;-8.814;2023-04-22T05:40:16;100668.66;;;12.80;100.00
64340;BME280;63709;53.258;-8.814;2023-04-22T05:42:43;100670.88;;;12.75;100.00
64340;BME280;63709;53.258;-8.814;2023-04-22T05:45:09;100679.03;;;12.95;100.00
64340;BME280;63709;53.258;-8.814;2023-04-22T05:47:35;100686.25;;;12.73;100.00
64340;BME280;63709;53.258;-8.814;2023-04-22T05:50:01;100680.38;;;12.79;100.00
64340;BME280;63709;53.258;-8.814;2023-04-22T05:52:28;100669.34;;;12.52;100.00
64340;BME280;63709;53.258;-8.814;2023-04-22T05:54:53;100650.53;;;12.63;100.00
64340;BME280;63709;53.258;-8.814;2023-04-22T05:57:19;100676.19;;;12.66;100.00
64340;BME280;63709;53.258;-8.814;2023-04-22T05:59:44;100672.94;;;12.62;100.00
64340;BME280;63709;53.258;-8.814;2023-04-22T06:02:10;100673.84;;;12.72;100.00
64340;BME280;63709;53.258;-8.814;2023-04-22T06:04:36;100628.03;;;12.24;100.00
64340;BME280;63709;53.258;-8.814;2023-04-22T06:07:03;100673.44;;;12.77;100.00
64340;BME280;63709;53.258;-8.814;2023-04-22T06:09:29;100655.13;;;12.82;100.00
64340;BME280;63709;53.258;-8.814;2023-04-22T06:11:57;100667.00;;;12.89;100.00
64340;BME280;63709;53.258;-8.814;2023-04-22T06:14:23;100652.72;;;12.79;100.00
64340;BME280;63709;53.258;-8.814;2023-04-22T06:16:49;100669.91;;;12.76;100.00
64340;BME280;63709;53.258;-8.814;2023-04-22T06:19:19;100664.88;;;12.83;100.00
64340;BME280;63709;53.258;-8.814;2023-04-22T06:21:46;100652.72;;;12.79;100.00
64340;BME280;63709;53.258;-8.814;2023-04-22T06:24:12;100660.94;;;12.87;100.00
64340;BME280;63709;53.258;-8.814;2023-04-22T06:26:38;100649.34;;;12.87;100.00
64340;BME280;63709;53.258;-8.814;2023-04-22T06:29:03;100668.91;;;12.98;100.00
64340;BME280;63709;53.258;-8.814;2023-04-22T06:31:30;100665.44;;;12.87;100.00
64340;BME280;63709;53.258;-8.814;2023-04-22T06:33:55;100640.19;;;12.79;100.00
64340;BME280;63709;53.258;-8.814;2023-04-22T06:36:21;100650.41;;;12.95;100.00
64340;BME280;63709;53.258;-8.814;2023-04-22T06:38:47;100655.84;;;12.53;100.00
64340;BME280;63709;53.258;-8.814;2023-04-22T06:41:13;100668.53;;;12.82;100.00
64340;BME280;63709;53.258;-8.814;2023-04-22T06:43:40;100671.03;;;12.74;100.00
64340;BME280;63709;53.258;-8.814;2023-04-22T06:46:05;100666.56;;;12.84;100.00
64340;BME280;63709;53.258;-8.814;2023-04-22T06:48:31;100658.94;;;12.79;100.00
64340;BME280;63709;53.258;-8.814;2023-04-22T06:50:57;100661.72;;;12.78;100.00
64340;BME280;63709;53.258;-8.814;2023-04-22T06:53:22;100655.44;;;12.89;100.00
64340;BME280;63709;53.258;-8.814;2023-04-22T06:55:49;100656.13;;;12.60;100.00
64340;BME280;63709;53.258;-8.814;2023-04-22T06:58:14;100651.50;;;12.83;100.00
64340;BME280;63709;53.258;-8.814;2023-04-22T07:00:40;100655.94;;;12.73;100.00
64340;BME280;63709;53.258;-8.814;2023-04-22T07:03:05;100655.63;;;12.66;100.00
64340;BME280;63709;53.258;-8.814;2023-04-22T07:05:32;100655.09;;;12.72;100.00
64340;BME280;63709;53.258;-8.814;2023-04-22T07:08:00;100631.66;;;12.65;100.00
64340;BME280;63709;53.258;-8.814;2023-04-22T07:10:25;100637.31;;;12.71;100.00
64340;BME280;63709;53.258;-8.814;2023-04-22T07:12:52;100650.78;;;12.60;100.00
64340;BME280;63709;53.258;-8.814;2023-04-22T07:15:17;100642.09;;;12.68;100.00
64340;BME280;63709;53.258;-8.814;2023-04-22T07:17:46;100652.69;;;12.69;100.00
64340;BME280;63709;53.258;-8.814;2023-04-22T07:20:13;100636.72;;;12.68;100.00
64340;BME280;63709;53.258;-8.814;2023-04-22T07:22:39;100645.34;;;12.71;100.00
64340;BME280;63709;53.258;-8.814;2023-04-22T07:25:05;100640.03;;;12.50;100.00
64340;BME280;63709;53.258;-8.814;2023-04-22T07:27:33;100644.38;;;12.72;100.00
64340;BME280;63709;53.258;-8.814;2023-04-22T07:30:00;100604.56;;;12.58;100.00
64340;BME280;63709;53.258;-8.814;2023-04-22T07:32:25;100609.34;;;12.54;100.00
64340;BME280;63709;53.258;-8.814;2023-04-22T07:34:52;100638.72;;;12.75;100.00
64340;BME280;63709;53.258;-8.814;2023-04-22T07:37:17;100618.97;;;12.67;100.00
64340;BME280;63709;53.258;-8.814;2023-04-22T07:39:43;100613.19;;;12.62;100.00
64340;BME280;63709;53.258;-8.814;2023-04-22T07:42:09;100611.78;;;12.67;100.00
64340;BME280;63709;53.258;-8.814;2023-04-22T07:44:37;100631.50;;;12.87;100.00
64340;BME280;63709;53.258;-8.814;2023-04-22T07:47:06;100590.19;;;12.59;100.00
64340;BME280;63709;53.258;-8.814;2023-04-22T07:49:35;100564.22;;;12.50;100.00
64340;BME280;63709;53.258;-8.814;2023-04-22T07:52:01;100611.78;;;12.98;100.00
64340;BME280;63709;53.258;-8.814;2023-04-22T07:54:27;100533.22;;;12.47;100.00
64340;BME280;63709;53.258;-8.814;2023-04-22T07:56:53;100576.50;;;12.83;100.00
64340;BME280;63709;53.258;-8.814;2023-04-22T07:59:23;100571.75;;;12.66;100.00
64340;BME280;63709;53.258;-8.814;2023-04-22T08:01:49;100574.44;;;12.66;100.00
64340;BME280;63709;53.258;-8.814;2023-04-22T08:04:15;100525.59;;;12.43;100.00
64340;BME280;63709;53.258;-8.814;2023-04-22T08:06:42;100552.69;;;12.59;100.00
64340;BME280;63709;53.258;-8.814;2023-04-22T08:09:07;100523.44;;;12.37;100.00
64340;BME280;63709;53.258;-8.814;2023-04-22T08:11:35;100528.53;;;12.09;100.00
64340;BME280;63709;53.258;-8.814;2023-04-22T08:14:03;100517.59;;;12.22;100.00
64340;BME280;63709;53.258;-8.814;2023-04-22T08:16:38;100506.81;;;12.02;100.00
64340;BME280;63709;53.258;-8.814;2023-04-22T08:19:21;100521.38;;;12.19;100.00
64340;BME280;63709;53.258;-8.814;2023-04-22T08:25:41;100518.59;;;12.00;100.00
64340;BME280;63709;53.258;-8.814;2023-04-22T08:28:53;100510.25;;;12.14;100.00
64340;BME280;63709;53.258;-8.814;2023-04-22T08:31:26;100547.44;;;12.17;100.00
64340;BME280;63709;53.258;-8.814;2023-04-22T08:33:55;100490.34;;;12.07;100.00
64340;BME280;63709;53.258;-8.814;2023-04-22T08:36:21;100508.22;;;12.27;100.00
64340;BME280;63709;53.258;-8.814;2023-04-22T08:38:51;100514.50;;;12.26;100.00
64340;BME280;63709;53.258;-8.814;2023-04-22T08:41:21;100513.81;;;12.24;100.00
64340;BME280;63709;53.258;-8.814;2023-04-22T08:43:49;100527.13;;;12.45;100.00
64340;BME280;63709;53.258;-8.814;2023-04-22T08:46:16;100525.59;;;12.43;100.00
64340;BME280;63709;53.258;-8.814;2023-04-22T08:48:45;100564.31;;;12.69;100.00
64340;BME280;63709;53.258;-8.814;2023-04-22T08:51:14;100567.56;;;12.73;100.00
64340;BME280;63709;53.258;-8.814;2023-04-22T08:53:43;100562.84;;;12.55;100.00
64340;BME280;63709;53.258;-8.814;2023-04-22T08:56:11;100557.78;;;12.62;100.00
64340;BME280;63709;53.258;-8.814;2023-04-22T08:58:40;100554.47;;;12.79;100.00
64340;BME280;63709;53.258;-8.814;2023-04-22T09:01:08;100551.91;;;12.68;100.00
64340;BME280;63709;53.258;-8.814;2023-04-22T09:03:38;100536.69;;;12.78;100.00
64340;BME280;63709;53.258;-8.814;2023-04-22T09:06:04;100534.47;;;12.93;100.00
64340;BME280;63709;53.258;-8.814;2023-04-22T09:08:31;100538.88;;;13.04;100.00
64340;BME280;63709;53.258;-8.814;2023-04-22T09:10:58;100540.25;;;12.89;100.00
64340;BME280;63709;53.258;-8.814;2023-04-22T09:13:25;100536.69;;;12.78;100.00
64340;BME280;63709;53.258;-8.814;2023-04-22T09:15:51;100537.44;;;12.80;100.00
64340;BME280;63709;53.258;-8.814;2023-04-22T09:18:18;100527.88;;;12.97;100.00
64340;BME280;63709;53.258;-8.814;2023-04-22T09:20:48;100528.50;;;12.70;100.00
64340;BME280;63709;53.258;-8.814;2023-04-22T09:23:14;100519.00;;;12.56;100.00
64340;BME280;63709;53.258;-8.814;2023-04-22T09:25:40;100521.84;;;12.24;100.00
64340;BME280;63709;53.258;-8.814;2023-04-22T09:28:10;100538.34;;;12.08;100.00
64340;BME280;63709;53.258;-8.814;2023-04-22T09:30:37;100528.53;;;12.09;100.00
64340;BME280;63709;53.258;-8.814;2023-04-22T09:33:05;100505.78;;;12.24;100.00
64340;BME280;63709;53.258;-8.814;2023-04-22T09:35:35;100487.44;;;12.20;100.00
64340;BME280;63709;53.258;-8.814;2023-04-22T09:38:04;100517.72;;;12.51;100.00
64340;BME280;63709;53.258;-8.814;2023-04-22T09:40:34;100512.16;;;12.33;100.00
64340;BME280;63709;53.258;-8.814;2023-04-22T09:43:05;100498.53;;;12.46;100.00
64340;BME280;63709;53.258;-8.814;2023-04-22T09:45:32;100515.47;;;12.56;100.00
64340;BME280;63709;53.258;-8.814;2023-04-22T09:48:17;100510.44;;;12.63;100.00
64340;BME280;63709;53.258;-8.814;2023-04-22T09:50:46;100510.44;;;12.63;100.00
64340;BME280;63709;53.258;-8.814;2023-04-22T09:53:14;100461.34;;;12.12;100.00
64340;BME280;63709;53.258;-8.814;2023-04-22T09:55:46;100505.03;;;12.43;100.00
64340;BME280;63709;53.258;-8.814;2023-04-22T09:58:14;100496.25;;;12.31;100.00
64340;BME280;63709;53.258;-8.814;2023-04-22T10:00:52;100500.81;;;12.50;100.00
64340;BME280;63709;53.258;-8.814;2023-04-22T10:03:19;100495.56;;;12.39;100.00
64340;BME280;63709;53.258;-8.814;2023-04-22T10:05:45;100484.50;;;12.63;100.00
64340;BME280;63709;53.258;-8.814;2023-04-22T10:08:11;100490.91;;;12.41;100.00
64340;BME280;63709;53.258;-8.814;2023-04-22T10:10:40;100484.56;;;12.32;100.00
64340;BME280;63709;53.258;-8.814;2023-04-22T10:13:07;100482.41;;;12.26;100.00
64340;BME280;63709;53.258;-8.814;2023-04-22T10:15:35;100475.94;;;12.29;100.00
64340;BME280;63709;53.258;-8.814;2023-04-22T10:18:06;100471.59;;;12.28;100.00
64340;BME280;63709;53.258;-8.814;2023-04-22T10:20:39;100472.53;;;12.17;100.00
64340;BME280;63709;53.258;-8.814;2023-04-22T10:23:14;100479.03;;;12.24;100.00
64340;BME280;63709;53.258;-8.814;2023-04-22T10:25:46;100473.31;;;12.08;100.00
64340;BME280;63709;53.258;-8.814;2023-04-22T10:28:14;100460.69;;;12.20;100.00
64340;BME280;63709;53.258;-8.814;2023-04-22T10:30:40;100474.06;;;12.20;100.00
64340;BME280;63709;53.258;-8.814;2023-04-22T10:41:24;100481.09;;;12.51;100.00
64340;BME280;63709;53.258;-8.814;2023-04-22T10:43:58;100482.47;;;12.36;100.00
64340;BME280;63709;53.258;-8.814;2023-04-22T10:49:24;100477.69;;;12.40;100.00
64340;BME280;63709;53.258;-8.814;2023-04-22T10:51:56;100479.09;;;12.44;100.00
64340;BME280;63709;53.258;-8.814;2023-04-22T10:57:10;100480.97;;;12.22;100.00
64340;BME280;63709;53.258;-8.814;2023-04-22T10:59:44;100462.88;;;12.05;100.00
64340;BME280;63709;53.258;-8.814;2023-04-22T11:02:12;100462.97;;;11.73;100.00
64340;BME280;63709;53.258;-8.814;2023-04-22T11:04:39;100444.28;;;11.82;100.00
64340;BME280;63709;53.258;-8.814;2023-04-22T11:07:28;100459.03;;;11.77;100.00
64340;BME280;63709;53.258;-8.814;2023-04-22T11:15:14;100460.94;;;11.65;100.00
64340;BME280;63709;53.258;-8.814;2023-04-22T11:17:45;100476.31;;;11.94;100.00
64340;BME280;63709;53.258;-8.814;2023-04-22T11:20:13;100464.00;;;11.39;100.00
64340;BME280;63709;53.258;-8.814;2023-04-22T11:22:46;100441.50;;;11.63;100.00
64340;BME280;63709;53.258;-8.814;2023-04-22T11:25:13;100468.88;;;11.55;100.00
64340;BME280;63709;53.258;-8.814;2023-04-22T11:27:41;100466.09;;;11.57;100.00
64340;BME280;63709;53.258;-8.814;2023-04-22T11:30:19;100462.56;;;11.56;100.00
64340;BME280;63709;53.258;-8.814;2023-04-22T11:32:45;100464.38;;;11.77;100.00
64340;BME280;63709;53.258;-8.814;2023-04-22T11:35:34;100454.53;;;11.56;100.00
64340;BME280;63709;53.258;-8.814;2023-04-22T11:38:02;100466.94;;;11.57;100.00
64340;BME280;63709;53.258;-8.814;2023-04-22T11:40:33;100437.22;;;11.72;100.00
64340;BME280;63709;53.258;-8.814;2023-04-22T11:43:01;100441.91;;;11.79;100.00
64340;BME280;63709;53.258;-8.814;2023-04-22T11:45:28;100458.97;;;12.09;100.00
64340;BME280;63709;53.258;-8.814;2023-04-22T11:47:55;100456.63;;;12.25;100.00
64340;BME280;63709;53.258;-8.814;2023-04-22T11:50:26;100456.31;;;12.09;100.00
64340;BME280;63709;53.258;-8.814;2023-04-22T11:55:39;100453.03;;;12.05;100.00
64340;BME280;63709;53.258;-8.814;2023-04-22T11:58:13;100447.34;;;12.29;100.00
64340;BME280;63709;53.258;-8.814;2023-04-22T12:00:51;100440.25;;;12.09;100.00
64340;BME280;63709;53.258;-8.814;2023-04-22T12:03:20;100453.31;;;12.12;100.00
64340;BME280;63709;53.258;-8.814;2023-04-22T12:08:24;100431.91;;;11.81;100.00
64340;BME280;63709;53.258;-8.814;2023-04-22T12:10:53;100437.75;;;11.86;100.00
64340;BME280;63709;53.258;-8.814;2023-04-22T12:13:41;100453.38;;;11.70;100.00
64340;BME280;63709;53.258;-8.814;2023-04-22T12:16:10;100449.28;;;11.87;100.00
64340;BME280;63709;53.258;-8.814;2023-04-22T12:18:54;100427.91;;;11.97;100.00
64340;BME280;63709;53.258;-8.814;2023-04-22T12:21:22;100453.97;;;12.25;100.00
64340;BME280;63709;53.258;-8.814;2023-04-22T12:23:53;100443.19;;;12.06;100.00
64340;BME280;63709;53.258;-8.814;2023-04-22T12:26:21;100442.47;;;12.04;100.00
64340;BME280;63709;53.258;-8.814;2023-04-22T12:28:48;100439.84;;;12.23;100.00
64340;BME280;63709;53.258;-8.814;2023-04-22T12:31:14;100441.91;;;12.41;100.00
64340;BME280;63709;53.258;-8.814;2023-04-22T12:33:40;100432.81;;;12.13;100.00
64340;BME280;63709;53.258;-8.814;2023-04-22T12:36:07;100424.53;;;12.25;100.00
64340;BME280;63709;53.258;-8.814;2023-04-22T12:38:34;100428.09;;;12.35;100.00
64340;BME280;63709;53.258;-8.814;2023-04-22T12:41:01;100439.97;;;12.72;100.00
64340;BME280;63709;53.258;-8.814;2023-04-22T12:43:27;100418.66;;;12.41;100.00
64340;BME280;63709;53.258;-8.814;2023-04-22T12:45:53;100436.88;;;12.57;100.00
64340;BME280;63709;53.258;-8.814;2023-04-22T12:48:19;100421.31;;;12.41;100.00
64340;BME280;63709;53.258;-8.814;2023-04-22T12:50:45;100420.06;;;12.35;100.00
64340;BME280;63709;53.258;-8.814;2023-04-22T12:53:12;100408.41;;;12.06;100.00
64340;BME280;63709;53.258;-8.814;2023-04-22T12:55:38;100426.00;;;12.39;100.00
64340;BME280;63709;53.258;-8.814;2023-04-22T12:58:06;100432.81;;;12.22;100.00
64340;BME280;63709;53.258;-8.814;2023-04-22T13:00:32;100429.47;;;12.30;100.00
64340;BME280;63709;53.258;-8.814;2023-04-22T13:02:58;100427.63;;;12.21;100.00
64340;BME280;63709;53.258;-8.814;2023-04-22T13:05:23;100429.44;;;12.20;100.00
64340;BME280;63709;53.258;-8.814;2023-04-22T13:07:50;100429.09;;;12.04;100.00
64340;BME280;63709;53.258;-8.814;2023-04-22T13:10:17;100415.84;;;12.02;100.00
64340;BME280;63709;53.258;-8.814;2023-04-22T13:12:43;100423.28;;;12.29;100.00
64340;BME280;63709;53.258;-8.814;2023-04-22T13:15:09;100418.97;;;12.07;100.00